createdAt,value
2023-04-16T00:01:21.352Z,88.06
2023-04-16T00:03:51.147Z,88.40
2023-04-16T00:06:19.237Z,88.92
2023-04-16T00:08:47.549Z,89.01
2023-04-16T00:11:16.007Z,89.28
2023-04-16T00:13:44.393Z,89.26
2023-04-16T00:16:12.394Z,89.82
2023-04-16T00:18:40.789Z,90.07
2023-04-16T00:21:10.334Z,89.62
2023-04-16T00:23:38.905Z,89.68
2023-04-16T00:26:07.088Z,90.15
2023-04-16T00:28:35.423Z,90.14
2023-04-16T00:31:03.508Z,90.55
2023-04-16T00:33:31.901Z,90.89
2023-04-16T00:36:00.486Z,91.06
2023-04-16T00:38:32.407Z,90.87
2023-04-16T00:41:00.483Z,91.36
2023-04-16T00:43:28.731Z,90.40
2023-04-16T00:45:57.963Z,90.39
2023-04-16T00:48:27.820Z,90.61
2023-04-16T00:50:56.411Z,89.91
2023-04-16T00:53:24.810Z,89.97
2023-04-16T00:55:54.573Z,89.98
2023-04-16T00:58:22.879Z,89.93
2023-04-16T01:00:51.733Z,89.46
2023-04-16T01:03:20.104Z,89.64
2023-04-16T01:05:50.627Z,88.63
2023-04-16T01:08:19.449Z,88.74
2023-04-16T01:10:47.518Z,88.57
2023-04-16T01:13:17.137Z,89.53
2023-04-16T01:15:45.283Z,89.67
2023-04-16T01:18:17.204Z,89.72
2023-04-16T01:20:47.038Z,90.75
2023-04-16T01:23:15.518Z,90.01
2023-04-16T01:25:43.510Z,90.63
2023-04-16T01:28:11.847Z,90.79
2023-04-16T01:30:39.995Z,91.34
2023-04-16T01:33:17.956Z,91.17
2023-04-16T01:35:47.394Z,91.58
2023-04-16T01:38:17.409Z,92.20
2023-04-16T01:40:45.505Z,92.53
2023-04-16T01:43:13.804Z,92.44
2023-04-16T01:45:42.119Z,93.19
2023-04-16T01:48:10.631Z,93.04
2023-04-16T01:50:38.707Z,93.10
2023-04-16T01:53:09.607Z,92.80
2023-04-16T01:55:37.644Z,93.41
2023-04-16T01:58:07.801Z,94.17
2023-04-16T02:00:36.324Z,93.24
2023-04-16T02:03:04.944Z,93.94
2023-04-16T02:05:33.169Z,93.88
2023-04-16T02:08:01.837Z,93.34
2023-04-16T02:10:32.866Z,92.98
2023-04-16T02:13:01.396Z,93.54
2023-04-16T02:15:29.494Z,93.33
2023-04-16T02:17:57.893Z,91.36
2023-04-16T02:20:27.105Z,91.07
2023-04-16T02:22:59.961Z,90.91
2023-04-16T02:25:28.915Z,90.95
2023-04-16T02:28:00.271Z,90.36
2023-04-16T02:30:36.592Z,90.29
2023-04-16T02:33:07.239Z,90.87
2023-04-16T02:35:36.437Z,90.70
2023-04-16T02:38:06.362Z,90.91
2023-04-16T02:40:36.244Z,90.59
2023-04-16T02:43:05.862Z,90.80
2023-04-16T02:45:34.551Z,90.44
2023-04-16T02:48:02.870Z,90.54
2023-04-16T02:50:30.988Z,90.17
2023-04-16T02:52:59.277Z,90.37
2023-04-16T02:55:28.104Z,90.31
2023-04-16T02:57:56.434Z,90.69
2023-04-16T03:00:25.921Z,90.25
2023-04-16T03:02:54.422Z,90.17
2023-04-16T03:05:22.648Z,90.90
2023-04-16T03:07:56.396Z,90.54
2023-04-16T03:10:24.946Z,90.59
2023-04-16T03:12:53.230Z,90.60
2023-04-16T03:15:21.230Z,89.79
2023-04-16T03:17:51.207Z,89.85
2023-04-16T03:20:19.747Z,90.05
2023-04-16T03:22:48.152Z,91.01
2023-04-16T03:25:16.441Z,90.02
2023-04-16T03:27:44.840Z,89.97
2023-04-16T03:30:14.483Z,89.90
2023-04-16T03:32:43.141Z,89.91
2023-04-16T03:35:13.645Z,90.32
2023-04-16T03:37:42.127Z,90.13
2023-04-16T03:40:11.211Z,90.05
2023-04-16T03:42:39.661Z,90.08
2023-04-16T03:45:09.374Z,90.08
2023-04-16T03:47:38.294Z,90.52
2023-04-16T03:50:07.039Z,90.74
2023-04-16T03:52:36.640Z,90.25
2023-04-16T03:55:05.346Z,90.56
2023-04-16T03:57:34.110Z,90.61
2023-04-16T04:00:09.793Z,90.05
2023-04-16T04:02:55.474Z,89.55
2023-04-16T04:05:24.117Z,89.10
2023-04-16T04:07:54.963Z,89.78
2023-04-16T04:10:23.171Z,89.76
2023-04-16T04:12:51.552Z,89.28
2023-04-16T04:15:19.644Z,89.98
2023-04-16T04:17:49.012Z,89.85
2023-04-16T04:20:17.268Z,90.25
2023-04-16T04:22:47.471Z,90.02
2023-04-16T04:25:17.953Z,90.24
2023-04-16T04:27:46.212Z,90.15
2023-04-16T04:30:14.208Z,90.01
2023-04-16T04:32:43.359Z,89.83
2023-04-16T04:35:11.523Z,89.56
2023-04-16T04:37:39.869Z,89.38
2023-04-16T04:40:19.728Z,89.64
2023-04-16T04:42:47.984Z,89.90
2023-04-16T04:45:16.921Z,89.48
2023-04-16T04:47:45.156Z,89.90
2023-04-16T04:50:13.215Z,89.48
2023-04-16T04:52:42.205Z,89.45
2023-04-16T04:55:10.550Z,89.17
2023-04-16T04:57:40.220Z,88.83
2023-04-16T05:00:09.378Z,89.03
2023-04-16T05:02:47.348Z,89.34
2023-04-16T05:05:15.657Z,89.76
2023-04-16T05:07:43.907Z,90.07
2023-04-16T05:10:11.995Z,90.66
2023-04-16T05:12:41.570Z,90.50
2023-04-16T05:15:10.554Z,89.69
2023-04-16T05:17:38.832Z,89.73
2023-04-16T05:20:08.648Z,89.71
2023-04-16T05:22:36.918Z,89.61
2023-04-16T05:25:05.371Z,89.54
2023-04-16T05:27:33.615Z,89.23
2023-04-16T05:30:02.969Z,89.88
2023-04-16T05:32:31.551Z,89.07
2023-04-16T05:34:59.589Z,89.17
2023-04-16T05:37:27.776Z,89.50
2023-04-16T05:39:55.950Z,87.67
2023-04-16T05:42:24.247Z,88.17
2023-04-16T05:44:52.412Z,88.20
2023-04-16T05:47:22.192Z,87.54
2023-04-16T05:49:50.193Z,87.22
2023-04-16T05:52:18.352Z,87.40
2023-04-16T05:54:46.402Z,87.16
2023-04-16T05:57:14.877Z,86.31
2023-04-16T05:59:42.886Z,86.29
2023-04-16T06:02:11.214Z,86.49
2023-04-16T06:04:40.646Z,85.57
2023-04-16T06:07:08.938Z,85.36
2023-04-16T06:09:37.018Z,84.77
2023-04-16T06:12:05.562Z,84.30
2023-04-16T06:14:33.558Z,84.47
2023-04-16T06:17:01.834Z,83.84
2023-04-16T06:19:29.794Z,83.31
2023-04-16T06:21:59.402Z,83.91
2023-04-16T06:24:27.436Z,82.89
2023-04-16T06:26:55.642Z,83.65
2023-04-16T06:29:30.677Z,83.31
2023-04-16T06:32:08.671Z,83.40
2023-04-16T06:34:36.795Z,83.61
2023-04-16T06:37:08.399Z,83.55
2023-04-16T06:39:37.914Z,83.44
2023-04-16T06:42:06.264Z,83.57
2023-04-16T06:44:34.276Z,84.09
2023-04-16T06:47:02.714Z,84.23
2023-04-16T06:49:30.870Z,84.18
2023-04-16T06:51:59.284Z,85.32
2023-04-16T06:54:28.585Z,84.59
2023-04-16T06:56:56.923Z,84.71
2023-04-16T06:59:24.897Z,84.74
2023-04-16T07:01:53.321Z,84.03
2023-04-16T07:04:21.651Z,84.56
2023-04-16T07:06:50.031Z,83.70
2023-04-16T07:09:18.535Z,84.22
2023-04-16T07:11:48.212Z,84.08
2023-04-16T07:14:16.275Z,84.09
2023-04-16T07:16:44.543Z,84.81
2023-04-16T07:19:12.555Z,85.42
2023-04-16T07:21:41.978Z,84.84
2023-04-16T07:24:11.000Z,85.37
2023-04-16T07:26:39.313Z,85.19
2023-04-16T07:29:08.912Z,85.43
2023-04-16T07:31:37.473Z,84.96
2023-04-16T07:34:05.649Z,85.17
2023-04-16T07:36:33.914Z,85.15
2023-04-16T07:39:01.892Z,84.74
2023-04-16T07:41:30.418Z,84.31
2023-04-16T07:43:58.933Z,84.28
2023-04-16T07:46:39.272Z,84.19
2023-04-16T07:49:14.018Z,84.39
2023-04-16T07:51:42.308Z,84.67
2023-04-16T07:54:11.079Z,84.82
2023-04-16T07:56:39.509Z,84.63
2023-04-16T07:59:21.041Z,84.83
2023-04-16T08:01:54.245Z,82.70
2023-04-16T08:04:25.082Z,83.22
2023-04-16T08:06:54.361Z,83.61
2023-04-16T08:09:23.828Z,83.16
2023-04-16T08:11:52.118Z,82.13
2023-04-16T08:14:20.338Z,82.82
2023-04-16T08:16:48.572Z,83.35
2023-04-16T08:19:18.255Z,83.00
2023-04-16T08:21:46.528Z,82.00
2023-04-16T08:24:14.534Z,83.11
2023-04-16T08:26:42.824Z,82.51
2023-04-16T08:29:11.157Z,82.78
2023-04-16T08:31:39.729Z,82.71
2023-04-16T08:34:07.806Z,83.20
2023-04-16T08:36:37.402Z,83.19
2023-04-16T08:39:05.852Z,82.67
2023-04-16T08:41:36.205Z,82.56
2023-04-16T08:44:09.364Z,82.36
2023-04-16T08:46:38.806Z,82.41
2023-04-16T08:49:08.058Z,83.13
2023-04-16T08:51:38.361Z,83.21
2023-04-16T08:54:09.886Z,83.58
2023-04-16T08:56:39.473Z,84.71
2023-04-16T08:59:10.674Z,85.11
2023-04-16T09:01:41.589Z,85.63
2023-04-16T09:04:10.285Z,85.66
2023-04-16T09:06:41.423Z,85.53
2023-04-16T09:09:09.989Z,85.29
2023-04-16T09:11:39.741Z,85.66
2023-04-16T09:14:11.103Z,86.12
2023-04-16T09:16:40.867Z,86.87
2023-04-16T09:19:09.220Z,87.17
2023-04-16T09:21:38.139Z,86.92
2023-04-16T09:24:08.155Z,87.61
2023-04-16T09:26:36.726Z,87.49
2023-04-16T09:29:04.769Z,87.94
2023-04-16T09:31:33.094Z,88.88
2023-04-16T09:34:05.335Z,89.41
2023-04-16T09:36:34.066Z,90.00
2023-04-16T09:39:02.349Z,90.69
2023-04-16T09:41:35.836Z,91.30
2023-04-16T09:44:05.947Z,92.01
2023-04-16T09:46:36.137Z,91.65
2023-04-16T09:49:06.512Z,90.50
2023-04-16T09:51:38.049Z,91.28
2023-04-16T09:54:06.526Z,91.05
2023-04-16T09:56:41.366Z,91.21
2023-04-16T09:59:10.402Z,91.07
2023-04-16T10:01:38.978Z,91.21
2023-04-16T10:04:07.777Z,90.95
2023-04-16T10:06:36.166Z,91.78
2023-04-16T10:09:08.201Z,92.31
2023-04-16T10:11:38.318Z,92.28
2023-04-16T10:14:06.330Z,90.73
2023-04-16T10:16:35.282Z,91.52
2023-04-16T10:19:03.315Z,91.52
2023-04-16T10:21:33.859Z,91.28
2023-04-16T10:24:02.490Z,91.08
2023-04-16T10:26:31.024Z,91.35
2023-04-16T10:29:01.160Z,91.72
2023-04-16T10:31:29.553Z,91.29
2023-04-16T10:33:57.739Z,91.62
2023-04-16T10:36:27.595Z,91.74
2023-04-16T10:39:00.640Z,91.69
2023-04-16T10:41:29.171Z,91.04
2023-04-16T10:44:09.504Z,91.17
2023-04-16T10:46:39.794Z,91.47
2023-04-16T10:49:15.063Z,90.69
2023-04-16T10:51:43.398Z,90.01
2023-04-16T10:54:22.505Z,89.45
2023-04-16T10:56:51.338Z,89.46
2023-04-16T10:59:21.708Z,90.42
2023-04-16T11:01:52.904Z,90.36
2023-04-16T11:04:33.491Z,90.24
2023-04-16T11:07:06.189Z,89.13
2023-04-16T11:09:57.679Z,89.73
2023-04-16T11:12:28.951Z,89.86
2023-04-16T11:15:01.436Z,90.59
2023-04-16T11:17:32.608Z,90.39
2023-04-16T11:20:00.897Z,90.52
2023-04-16T11:22:29.180Z,90.08
2023-04-16T11:24:57.950Z,90.53
2023-04-16T11:27:26.568Z,90.50
2023-04-16T11:30:00.060Z,90.43
2023-04-16T11:32:28.658Z,90.14
2023-04-16T11:34:56.595Z,90.26
2023-04-16T11:37:33.595Z,90.74
2023-04-16T11:40:02.257Z,89.68
2023-04-16T11:42:30.771Z,88.91
2023-04-16T11:45:01.394Z,89.28
2023-04-16T11:47:31.506Z,89.38
2023-04-16T11:49:59.907Z,88.19
2023-04-16T11:52:28.733Z,88.50
2023-04-16T11:54:56.850Z,88.73
2023-04-16T11:57:26.610Z,88.49
2023-04-16T12:00:01.698Z,89.35
2023-04-16T12:02:43.177Z,87.92
2023-04-16T12:05:30.695Z,88.20
2023-04-16T12:07:59.988Z,89.23
2023-04-16T12:10:28.525Z,89.52
2023-04-16T12:13:10.923Z,93.38
2023-04-16T12:15:46.979Z,88.96
2023-04-16T12:18:16.966Z,88.42
2023-04-16T12:20:45.583Z,88.39
2023-04-16T12:23:24.008Z,86.71
2023-04-16T12:25:54.941Z,87.88
2023-04-16T12:28:31.145Z,87.43
2023-04-16T12:30:59.235Z,86.96
2023-04-16T12:33:29.033Z,87.26
2023-04-16T12:35:57.016Z,86.14
2023-04-16T12:38:26.201Z,87.00
2023-04-16T12:40:56.812Z,87.50
2023-04-16T12:43:25.987Z,87.92
2023-04-16T12:45:54.098Z,86.64
2023-04-16T12:48:22.594Z,87.31
2023-04-16T12:50:54.710Z,87.00
2023-04-16T12:53:23.093Z,87.23
2023-04-16T12:55:51.493Z,87.32
2023-04-16T12:58:19.730Z,87.00
2023-04-16T13:00:47.819Z,87.02
2023-04-16T13:03:16.281Z,87.43
2023-04-16T13:05:44.573Z,87.58
2023-04-16T13:08:14.219Z,87.78
2023-04-16T13:10:42.292Z,87.95
2023-04-16T13:13:10.624Z,87.57
2023-04-16T13:15:38.734Z,87.93
2023-04-16T13:18:07.050Z,87.75
2023-04-16T13:20:35.182Z,88.09
2023-04-16T13:23:04.861Z,87.37
2023-04-16T13:25:34.330Z,86.93
2023-04-16T13:28:02.642Z,87.48
2023-04-16T13:30:31.798Z,87.65
2023-04-16T13:33:00.537Z,87.75
2023-04-16T13:35:28.686Z,87.62
2023-04-16T13:37:56.948Z,87.53
2023-04-16T13:40:24.989Z,88.23
2023-04-16T13:42:54.583Z,88.15
2023-04-16T13:45:22.666Z,88.28
2023-04-16T13:47:50.974Z,88.28
2023-04-16T13:50:19.330Z,87.60
2023-04-16T13:52:47.818Z,88.67
2023-04-16T13:55:18.904Z,88.96
2023-04-16T13:57:48.042Z,89.04
2023-04-16T14:00:18.636Z,89.16
2023-04-16T14:02:48.663Z,89.25
2023-04-16T14:05:17.053Z,89.21
2023-04-16T14:07:45.382Z,89.06
2023-04-16T14:10:13.447Z,89.49
2023-04-16T14:12:41.978Z,88.30
2023-04-16T14:15:10.612Z,88.08
2023-04-16T14:17:40.270Z,88.46
2023-04-16T14:20:09.259Z,88.83
2023-04-16T14:22:37.561Z,88.75
2023-04-16T14:25:06.346Z,88.05
2023-04-16T14:27:35.102Z,89.00
2023-04-16T14:30:03.294Z,89.60
2023-04-16T14:32:31.639Z,89.29
2023-04-16T14:35:02.698Z,90.05
2023-04-16T14:37:31.803Z,89.79
2023-04-16T14:39:59.884Z,89.31
2023-04-16T14:42:28.397Z,89.47
2023-04-16T14:44:56.593Z,90.27
2023-04-16T14:47:25.182Z,90.37
2023-04-16T14:49:53.291Z,90.62
2023-04-16T14:52:23.386Z,90.58
2023-04-16T14:54:52.207Z,91.33
2023-04-16T14:57:20.587Z,91.63
2023-04-16T14:59:49.255Z,91.37
2023-04-16T15:02:17.769Z,90.90
2023-04-16T15:04:46.452Z,90.58
2023-04-16T15:07:14.870Z,90.73
2023-04-16T15:09:44.276Z,90.38
2023-04-16T15:12:12.683Z,90.00
2023-04-16T15:14:40.980Z,90.32
2023-04-16T15:17:09.466Z,90.42
2023-04-16T15:19:37.745Z,90.04
2023-04-16T15:22:06.694Z,90.27
2023-04-16T15:24:34.737Z,91.00
2023-04-16T15:27:07.162Z,90.13
2023-04-16T15:29:35.804Z,90.14
2023-04-16T15:32:04.154Z,90.72
2023-04-16T15:34:32.321Z,90.88
2023-04-16T15:37:00.862Z,90.16
2023-04-16T15:39:28.961Z,90.55
2023-04-16T15:42:00.843Z,91.12
2023-04-16T15:44:32.355Z,91.65
2023-04-16T15:47:00.820Z,90.56
2023-04-16T15:49:28.936Z,91.14
2023-04-16T15:51:57.233Z,91.13
2023-04-16T15:54:25.581Z,91.19
2023-04-16T15:56:53.869Z,91.42
2023-04-16T15:59:21.909Z,91.47
2023-04-16T16:01:51.607Z,90.79
2023-04-16T16:04:22.129Z,90.66
2023-04-16T16:06:50.676Z,91.14
2023-04-16T16:09:25.465Z,91.42
2023-04-16T16:11:54.343Z,92.12
2023-04-16T16:14:23.132Z,92.38
2023-04-16T16:16:52.787Z,92.96
2023-04-16T16:19:20.836Z,92.27
2023-04-16T16:21:49.154Z,92.28
2023-04-16T16:24:17.242Z,92.27
2023-04-16T16:26:45.506Z,91.75
2023-04-16T16:29:13.659Z,91.35
2023-04-16T16:31:42.046Z,92.02
2023-04-16T16:34:19.969Z,91.54
2023-04-16T16:36:49.116Z,91.39
2023-04-16T16:39:17.125Z,91.18
2023-04-16T16:41:45.612Z,91.62
2023-04-16T16:44:13.768Z,92.22
2023-04-16T16:46:42.088Z,92.19
2023-04-16T16:49:11.714Z,92.53
2023-04-16T16:51:40.414Z,91.87
2023-04-16T16:54:08.868Z,92.02
2023-04-16T16:56:37.208Z,91.62
2023-04-16T16:59:05.361Z,91.57
2023-04-16T17:01:33.799Z,90.98
2023-04-16T17:04:02.038Z,91.93
2023-04-16T17:06:33.203Z,92.02
2023-04-16T17:09:01.284Z,91.90
2023-04-16T17:11:29.499Z,91.17
2023-04-16T17:13:57.586Z,91.07
2023-04-16T17:16:26.052Z,91.63
2023-04-16T17:18:54.078Z,91.82
2023-04-16T17:21:22.354Z,91.32
2023-04-16T17:23:51.760Z,91.97
2023-04-16T17:26:20.090Z,92.57
2023-04-16T17:28:48.142Z,93.30
2023-04-16T17:31:16.506Z,94.14
2023-04-16T17:33:44.955Z,94.40
2023-04-16T17:36:13.693Z,94.47
2023-04-16T17:38:44.706Z,93.70
2023-04-16T17:41:14.673Z,94.40
2023-04-16T17:43:42.706Z,93.55
2023-04-16T17:46:11.590Z,93.44
2023-04-16T17:48:40.984Z,92.27
2023-04-16T17:51:12.821Z,92.19
2023-04-16T17:53:42.566Z,93.23
2023-04-16T17:56:11.181Z,92.83
2023-04-16T17:58:40.815Z,92.88
2023-04-16T18:01:09.229Z,92.61
2023-04-16T18:03:38.201Z,92.53
2023-04-16T18:06:06.978Z,92.49
2023-04-16T18:08:36.856Z,92.06
2023-04-16T18:11:07.585Z,93.08
2023-04-16T18:13:35.728Z,92.26
2023-04-16T18:16:06.203Z,92.01
2023-04-16T18:18:34.284Z,93.01
2023-04-16T18:21:02.548Z,92.32
2023-04-16T18:23:30.687Z,90.60
2023-04-16T18:25:58.935Z,91.24
2023-04-16T18:28:27.738Z,91.81
2023-04-16T18:30:59.043Z,90.28
2023-04-16T18:33:52.288Z,89.85
2023-04-16T18:36:17.282Z,88.92
2023-04-16T18:38:59.523Z,89.77
2023-04-16T18:41:29.923Z,90.48
2023-04-16T18:43:58.526Z,91.70
2023-04-16T18:46:27.382Z,91.58
2023-04-16T18:48:58.876Z,91.70
2023-04-16T18:51:27.637Z,91.40
2023-04-16T18:53:55.666Z,91.13
2023-04-16T18:56:24.382Z,90.45
2023-04-16T18:58:52.511Z,90.69
2023-04-16T19:01:20.869Z,90.76
2023-04-16T19:03:48.944Z,91.45
2023-04-16T19:06:18.589Z,91.74
2023-04-16T19:08:46.657Z,92.51
2023-04-16T19:11:14.964Z,93.53
2023-04-16T19:13:43.146Z,92.61
2023-04-16T19:16:12.289Z,93.25
2023-04-16T19:18:40.522Z,93.80
2023-04-16T19:21:10.632Z,94.08
2023-04-16T19:23:40.132Z,93.88
2023-04-16T19:26:08.502Z,92.44
2023-04-16T19:28:38.464Z,91.73
2023-04-16T19:31:07.234Z,91.33
2023-04-16T19:33:35.415Z,90.57
2023-04-16T19:36:04.027Z,91.26
2023-04-16T19:38:32.401Z,90.24
2023-04-16T19:41:02.107Z,90.45
2023-04-16T19:43:30.968Z,90.45
2023-04-16T19:45:59.655Z,90.44
2023-04-16T19:48:30.180Z,90.62
2023-04-16T19:51:02.644Z,91.27
2023-04-16T19:53:34.367Z,90.85
2023-04-16T19:56:04.474Z,90.39
2023-04-16T19:58:32.582Z,90.69
2023-04-16T20:01:01.109Z,90.58
2023-04-16T20:03:29.390Z,89.67
2023-04-16T20:05:57.842Z,89.95
2023-04-16T20:08:26.021Z,90.61
2023-04-16T20:10:54.437Z,89.59
2023-04-16T20:13:25.507Z,89.94
2023-04-16T20:15:54.048Z,93.12
2023-04-16T20:18:22.205Z,90.44
2023-04-16T20:20:50.752Z,89.80
2023-04-16T20:23:18.906Z,89.55
2023-04-16T20:25:47.319Z,89.84
2023-04-16T20:28:16.199Z,90.40
2023-04-16T20:30:45.975Z,89.83
2023-04-16T20:33:14.229Z,90.05
2023-04-16T20:35:42.586Z,90.32
2023-04-16T20:38:10.598Z,90.45
2023-04-16T20:40:41.885Z,90.49
2023-04-16T20:43:14.038Z,90.76
2023-04-16T20:45:46.010Z,90.99
2023-04-16T20:48:15.493Z,90.92
2023-04-16T20:50:43.820Z,90.80
2023-04-16T20:53:12.916Z,90.67
2023-04-16T20:55:41.186Z,90.64
2023-04-16T20:58:09.334Z,90.21
2023-04-16T21:00:37.694Z,90.54
2023-04-16T21:03:06.709Z,90.40
2023-04-16T21:05:36.882Z,90.30
2023-04-16T21:08:05.312Z,89.64
2023-04-16T21:10:33.742Z,89.68
2023-04-16T21:13:01.834Z,90.46
2023-04-16T21:15:30.450Z,89.51
2023-04-16T21:17:58.943Z,88.71
2023-04-16T21:20:30.353Z,88.54
2023-04-16T21:23:00.298Z,89.61
2023-04-16T21:25:28.652Z,90.29
2023-04-16T21:27:56.766Z,90.48
2023-04-16T21:30:25.058Z,90.96
2023-04-16T21:32:53.155Z,90.09
2023-04-16T21:35:21.577Z,90.42
2023-04-16T21:37:49.767Z,90.41
2023-04-16T21:40:20.392Z,90.98
2023-04-16T21:42:48.446Z,89.72
2023-04-16T21:45:16.711Z,90.39
2023-04-16T21:47:44.900Z,90.55
2023-04-16T21:50:14.013Z,90.46
2023-04-16T21:52:46.049Z,90.25
2023-04-16T21:55:16.017Z,89.89
2023-04-16T21:57:45.419Z,89.44
2023-04-16T22:00:14.531Z,88.38
2023-04-16T22:02:43.280Z,87.71
2023-04-16T22:05:12.072Z,88.38
2023-04-16T22:07:40.798Z,88.37
2023-04-16T22:10:11.030Z,87.27
2023-04-16T22:12:40.149Z,86.59
2023-04-16T22:15:10.594Z,86.27
2023-04-16T22:17:39.546Z,86.16
2023-04-16T22:20:11.506Z,86.43
2023-04-16T22:22:39.934Z,86.86
2023-04-16T22:25:09.299Z,87.06
2023-04-16T22:27:37.530Z,87.65
2023-04-16T22:30:07.140Z,87.55
2023-04-16T22:32:38.485Z,87.01
2023-04-16T22:35:07.369Z,86.68
2023-04-16T22:37:35.428Z,86.68
2023-04-16T22:40:06.989Z,86.79
2023-04-16T22:42:35.085Z,87.97
2023-04-16T22:45:04.762Z,87.42
2023-04-16T22:47:32.978Z,87.57
2023-04-16T22:50:03.293Z,86.86
2023-04-16T22:52:31.546Z,87.55
2023-04-16T22:54:59.863Z,86.67
2023-04-16T22:57:27.932Z,86.13
2023-04-16T22:59:56.271Z,87.05
2023-04-16T23:02:24.565Z,87.16
2023-04-16T23:04:53.197Z,86.98
2023-04-16T23:07:22.662Z,87.03
2023-04-16T23:09:51.212Z,87.78
2023-04-16T23:12:19.410Z,87.52
2023-04-16T23:14:48.302Z,87.94
2023-04-16T23:17:18.661Z,87.67
2023-04-16T23:19:47.042Z,87.61
2023-04-16T23:22:15.034Z,86.65
2023-04-16T23:24:44.645Z,86.07
2023-04-16T23:27:12.727Z,85.59
2023-04-16T23:29:41.034Z,86.00
2023-04-16T23:32:09.059Z,86.33
2023-04-16T23:34:37.322Z,86.44
2023-04-16T23:37:05.429Z,85.93
2023-04-16T23:39:33.741Z,86.46
2023-04-16T23:42:03.155Z,86.63
2023-04-16T23:44:31.539Z,86.54
2023-04-16T23:46:59.833Z,86.70
2023-04-16T23:49:28.136Z,86.82
2023-04-16T23:51:56.320Z,86.56
2023-04-16T23:54:24.639Z,87.16
2023-04-16T23:56:52.640Z,87.31
2023-04-16T23:59:22.776Z,87.18
